Time;durP1;ratioP1;P1;durP2;ratioP2;P2;SDS_P1;SDS_P2;PMS_P1;PMS_P2;Temp;Humidity;BMP_temperature;BMP_pressure;BME280_temperature;BME280_humidity;BME280_pressure;Samples;Min_cycle;Max_cycle;Signal;HPM_P1;HPM_P2
2022/06/03 00:00:59;;;;;;;6.93;3.27;;;15.80;74.60;;;;;;10454600;28;20226;-71
2022/06/03 00:06:03;;;;;;;5.87;3.00;;;15.80;74.20;;;;;;10476953;28;20234;-73
2022/06/03 00:11:36;;;;;;;4.13;2.17;;;15.90;74.40;;;;;;10477070;28;20220;-74
2022/06/03 00:17:10;;;;;;;2.57;1.63;;;15.90;74.90;;;;;;10417016;28;20219;-72
2022/06/03 00:22:30;;;;;;;2.40;1.60;;;15.80;74.90;;;;;;10466186;28;20211;-72
2022/06/03 00:27:57;;;;;;;4.40;1.70;;;15.80;74.90;;;;;;10490741;28;20246;-72
2022/06/03 00:33:03;;;;;;;7.53;2.70;;;15.80;75.00;;;;;;10494036;28;20593;-72
2022/06/03 00:38:19;;;;;;;6.90;3.20;;;15.70;74.60;;;;;;10471826;28;20219;-71
2022/06/03 00:43:46;;;;;;;5.47;2.77;;;15.70;74.80;;;;;;10464676;28;20234;-73
2022/06/03 00:48:55;;;;;;;5.40;3.10;;;15.60;74.80;;;;;;10487744;28;20697;-72
2022/06/03 00:54:01;;;;;;;7.67;3.50;;;15.50;75.40;;;;;;10478805;28;20224;-72
2022/06/03 00:59:24;;;;;;;7.27;2.70;;;15.50;75.60;;;;;;10467599;28;20219;-72
2022/06/03 01:04:47;;;;;;;6.70;2.83;;;15.50;76.10;;;;;;10491466;28;20235;-72
2022/06/03 01:10:27;;;;;;;6.43;2.97;;;15.40;76.40;;;;;;10471682;28;20222;-71
2022/06/03 01:15:40;;;;;;;8.47;3.00;;;15.40;76.60;;;;;;10468164;28;20220;-72
2022/06/03 01:20:48;;;;;;;6.97;3.17;;;15.50;76.90;;;;;;10479634;28;20237;-73
2022/06/03 01:26:01;;;;;;;7.20;2.97;;;15.50;77.20;;;;;;10473703;28;20252;-70
2022/06/03 01:31:32;;;;;;;4.27;2.60;;;15.50;77.40;;;;;;10482682;28;20287;-71
2022/06/03 01:36:48;;;;;;;4.83;2.30;;;15.60;77.60;;;;;;10472662;28;20231;-71
2022/06/03 01:42:16;;;;;;;4.63;2.27;;;15.60;77.70;;;;;;10470295;28;20256;-73
2022/06/03 01:47:53;;;;;;;2.70;1.40;;;15.60;77.60;;;;;;10476698;28;20235;-72
2022/06/03 01:53:00;;;;;;;1.47;1.20;;;15.60;77.80;;;;;;10479035;28;20223;-72
2022/06/03 01:58:40;;;;;;;2.27;1.17;;;15.70;78.10;;;;;;10471021;28;20295;-73
2022/06/03 02:04:08;;;;;;;1.97;1.27;;;15.70;78.20;;;;;;10472983;28;20307;-70
2022/06/03 02:10:15;;;;;;;3.27;1.63;;;15.70;78.40;;;;;;10470791;28;20226;-71
2022/06/03 02:15:45;;;;;;;3.77;2.30;;;15.70;78.70;;;;;;10367754;28;20267;-71
2022/06/03 02:20:54;;;;;;;5.83;2.00;;;15.70;79.20;;;;;;10433376;28;20693;-71
2022/06/03 02:26:42;;;;;;;3.50;1.93;;;15.60;79.70;;;;;;10487215;28;20227;-72
2022/06/03 02:31:52;;;;;;;7.00;3.50;;;15.50;80.40;;;;;;10357262;28;20772;-73
2022/06/03 02:37:30;;;;;;;6.17;2.43;;;15.40;81.10;;;;;;10471971;28;20716;-72
2022/06/03 02:42:56;;;;;;;7.23;3.37;;;15.30;81.80;;;;;;10464371;28;20220;-72
2022/06/03 02:48:13;;;;;;;8.47;3.13;;;15.20;82.50;;;;;;10470931;28;20230;-72
2022/06/03 02:53:50;;;;;;;3.17;1.90;;;15.20;83.20;;;;;;10477173;28;20918;-74
2022/06/03 02:59:24;;;;;;;5.73;2.80;;;15.10;83.80;;;;;;10477860;28;20215;-72
2022/06/03 03:04:46;;;;;;;2.00;1.50;;;15.00;84.70;;;;;;10465279;28;20559;-70
2022/06/03 03:10:20;;;;;;;2.87;1.73;;;15.00;85.60;;;;;;10470025;28;20222;-74
2022/06/03 03:15:36;;;;;;;1.37;1.13;;;14.90;86.50;;;;;;10443386;28;20220;-71
2022/06/03 03:21:07;;;;;;;3.60;1.53;;;14.70;87.10;;;;;;10469858;28;20274;-73
2022/06/03 03:26:15;;;;;;;1.87;1.20;;;14.50;88.40;;;;;;10484264;28;20231;-73
2022/06/03 03:31:18;;;;;;;3.47;1.50;;;14.60;89.10;;;;;;10467630;28;20250;-72
2022/06/03 03:36:39;;;;;;;2.20;1.70;;;14.60;89.60;;;;;;10475928;28;20226;-71
2022/06/03 03:42:17;;;;;;;5.73;1.90;;;14.60;90.00;;;;;;10456209;28;20220;-70
2022/06/03 03:47:50;;;;;;;2.50;1.87;;;14.60;90.20;;;;;;10466223;28;20266;-72
2022/06/03 03:53:29;;;;;;;2.93;1.57;;;14.70;90.50;;;;;;10469132;28;20708;-72
2022/06/03 03:58:48;;;;;;;2.57;1.80;;;14.60;90.70;;;;;;10461133;28;20702;-73
2022/06/03 04:04:27;;;;;;;8.27;1.70;;;14.60;91.10;;;;;;10482253;28;20227;-72
2022/06/03 04:09:36;;;;;;;2.70;1.70;;;14.70;91.20;;;;;;10461063;28;20227;-72
2022/06/03 04:15:32;;;;;;;4.90;1.50;;;14.90;91.20;;;;;;10469544;28;20227;-70
2022/06/03 04:21:07;;;;;;;4.33;2.03;;;15.00;91.10;;;;;;10427323;28;20247;-71
2022/06/03 04:26:21;;;;;;;6.77;3.33;;;15.20;90.80;;;;;;10440414;28;20231;-70
2022/06/03 04:31:41;;;;;;;7.23;3.10;;;15.30;90.80;;;;;;10462711;28;20223;-70
2022/06/03 04:37:18;;;;;;;5.30;2.70;;;15.50;90.60;;;;;;10474014;28;20378;-71
2022/06/03 04:42:40;;;;;;;8.03;2.87;;;16.10;89.80;;;;;;10466600;28;20228;-71
2022/06/03 04:48:15;;;;;;;3.80;2.50;;;16.10;88.70;;;;;;10470700;28;20783;-71
2022/06/03 04:53:40;;;;;;;7.63;3.30;;;16.00;88.80;;;;;;10473112;28;20251;-69
2022/06/03 04:59:18;;;;;;;6.07;2.90;;;16.20;88.80;;;;;;10466191;28;20606;-71
2022/06/03 05:05:00;;;;;;;8.63;2.13;;;16.60;87.60;;;;;;10465010;28;20322;-70
2022/06/03 05:10:22;;;;;;;2.70;1.70;;;17.90;82.30;;;;;;10455629;28;20226;-70
2022/06/03 05:15:32;;;;;;;4.97;1.70;;;18.20;80.30;;;;;;10458949;28;20215;-71
2022/06/03 05:20:43;;;;;;;4.70;2.50;;;18.50;78.60;;;;;;10470254;28;20224;-70
2022/06/03 05:26:23;;;;;;;3.77;2.00;;;18.20;78.80;;;;;;10473761;28;20329;-68
2022/06/03 05:31:55;;;;;;;8.27;2.13;;;18.00;79.90;;;;;;10454533;28;20233;-71
2022/06/03 05:37:17;;;;;;;5.77;1.60;;;17.50;81.80;;;;;;10465749;28;20329;-71
2022/06/03 05:42:28;;;;;;;9.40;2.67;;;17.50;82.60;;;;;;10466222;28;20680;-72
2022/06/03 05:47:55;;;;;;;9.10;2.10;;;17.70;81.10;;;;;;10446394;28;20717;-73
2022/06/03 05:53:19;;;;;;;4.27;2.50;;;18.10;79.50;;;;;;10455942;28;20230;-71
2022/06/03 05:58:43;;;;;;;5.73;2.17;;;18.60;77.00;;;;;;10470385;28;20219;-70
2022/06/03 06:04:05;;;;;;;10.83;2.87;;;19.10;74.80;;;;;;10468048;28;20215;-71
2022/06/03 06:09:30;;;;;;;10.30;2.30;;;19.60;72.70;;;;;;10468493;28;20266;-69
2022/06/03 06:14:39;;;;;;;7.20;2.37;;;20.60;69.30;;;;;;10484171;28;20339;-71
2022/06/03 06:19:54;;;;;;;5.23;2.20;;;21.10;66.10;;;;;;10475027;28;20219;-73
2022/06/03 06:25:03;;;;;;;11.17;2.80;;;21.30;65.60;;;;;;10457150;28;20219;-70
2022/06/03 06:30:39;;;;;;;5.07;1.67;;;21.20;65.10;;;;;;10470560;28;20227;-71
2022/06/03 06:36:02;;;;;;;5.37;1.40;;;21.30;64.70;;;;;;10377270;28;20242;-71
2022/06/03 06:41:27;;;;;;;5.10;1.70;;;22.10;61.40;;;;;;10458131;28;20227;-72
2022/06/03 06:46:38;;;;;;;6.27;2.17;;;22.90;58.90;;;;;;10458641;28;20245;-68
2022/06/03 06:51:47;;;;;;;1.67;1.10;;;24.20;56.40;;;;;;10470401;28;20726;-72
2022/06/03 06:57:02;;;;;;;2.20;0.90;;;23.90;53.50;;;;;;10463792;28;20231;-72
2022/06/03 07:02:36;;;;;;;2.67;1.30;;;24.10;54.70;;;;;;10465997;28;20696;-71
2022/06/03 07:07:50;;;;;;;2.43;1.17;;;23.90;54.40;;;;;;10465193;28;20776;-71
2022/06/03 07:12:57;;;;;;;0.97;0.90;;;23.90;54.70;;;;;;10480243;28;20318;-73
2022/06/03 07:24:04;;;;;;;3.33;1.63;;;25.20;52.00;;;;;;10466154;28;20208;-73
2022/06/03 07:29:14;;;;;;;4.40;1.20;;;25.20;51.60;;;;;;10467881;28;20346;-70
2022/06/03 07:34:46;;;;;;;2.63;1.50;;;25.40;51.70;;;;;;10468925;28;20849;-71
2022/06/03 07:40:51;;;;;;;2.60;1.50;;;26.00;51.00;;;;;;10441786;28;20305;-71
2022/06/03 07:46:11;;;;;;;2.63;1.23;;;26.00;49.90;;;;;;10402681;28;20233;-70
2022/06/03 07:51:31;;;;;;;3.97;1.27;;;25.90;49.90;;;;;;10473321;28;20230;-71
2022/06/03 07:56:35;;;;;;;1.40;1.30;;;26.50;49.50;;;;;;10473674;28;20314;-70
2022/06/03 08:01:42;;;;;;;2.40;1.07;;;27.30;48.20;;;;;;10455158;28;20307;-71
2022/06/03 08:12:02;;;;;;;1.20;1.10;;;28.40;46.40;;;;;;10476725;28;20212;-70
2022/06/03 08:17:08;;;;;;;4.77;1.43;;;28.50;45.00;;;;;;10475046;28;20227;-72
2022/06/03 08:22:15;;;;;;;7.80;1.70;;;28.30;45.70;;;;;;10481293;28;20223;-71
2022/06/03 08:27:24;;;;;;;4.50;1.27;;;28.40;45.10;;;;;;10476522;28;20230;-70
2022/06/03 08:32:29;;;;;;;3.27;1.67;;;28.90;45.20;;;;;;10463234;28;20245;-70
2022/06/03 08:37:44;;;;;;;2.50;1.40;;;30.50;42.50;;;;;;10472579;28;20231;-69
2022/06/03 08:43:17;;;;;;;4.77;1.60;;;31.20;40.80;;;;;;10461926;28;20589;-69
2022/06/03 08:48:26;;;;;;;3.00;1.43;;;31.70;40.50;;;;;;10469167;28;20544;-69
2022/06/03 08:54:03;;;;;;;2.87;1.40;;;31.80;40.00;;;;;;10452437;28;20570;-70
2022/06/03 08:59:22;;;;;;;4.73;1.43;;;33.00;39.00;;;;;;10429797;28;20228;-70
2022/06/03 09:04:30;;;;;;;4.63;1.40;;;33.70;36.70;;;;;;10461291;28;20721;-71
2022/06/03 09:09:49;;;;;;;4.67;1.30;;;33.80;37.30;;;;;;10463313;28;20878;-70
2022/06/03 09:14:52;;;;;;;6.60;1.50;;;33.80;37.10;;;;;;10479060;28;20716;-70
2022/06/03 09:19:56;;;;;;;3.67;1.30;;;36.20;33.80;;;;;;10474964;28;20631;-70
2022/06/03 09:25:01;;;;;;;6.17;1.60;;;35.10;34.70;;;;;;10471806;28;20220;-71
2022/06/03 09:30:05;;;;;;;6.53;1.93;;;34.00;36.10;;;;;;10463283;28;20243;-70
2022/06/03 09:35:12;;;;;;;5.23;1.83;;;33.30;37.30;;;;;;10476531;28;20234;-70
2022/06/03 09:40:18;;;;;;;4.30;1.90;;;33.70;36.60;;;;;;10475030;28;20187;-70
2022/06/03 09:45:20;;;;;;;4.17;1.40;;;35.50;34.90;;;;;;10460175;28;20208;-70
2022/06/03 09:50:23;;;;;;;4.90;1.27;;;35.70;34.00;;;;;;10478316;28;20283;-70
2022/06/03 09:55:31;;;;;;;3.83;1.67;;;36.20;33.60;;;;;;10446066;28;20239;-70
2022/06/03 10:00:46;;;;;;;4.67;1.80;;;36.20;33.20;;;;;;10469525;28;20302;-71
2022/06/03 10:05:50;;;;;;;5.27;2.00;;;36.60;33.70;;;;;;10470956;28;20309;-70
2022/06/03 10:16:12;;;;;;;2.07;1.83;;;37.40;33.80;;;;;;10475496;28;20219;-71
2022/06/03 10:21:16;;;;;;;3.47;1.70;;;40.20;30.00;;;;;;10470115;28;20678;-71
2022/06/03 10:26:52;;;;;;;3.37;1.90;;;37.30;31.90;;;;;;10465059;28;20313;-69
2022/06/03 10:31:58;;;;;;;13.13;2.10;;;36.10;33.20;;;;;;10456835;28;20273;-70
2022/06/03 10:36:59;;;;;;;7.20;1.87;;;35.10;35.50;;;;;;10476978;28;20255;-71
2022/06/03 10:42:00;;;;;;;3.00;2.00;;;33.90;37.00;;;;;;10466951;28;20259;-71
2022/06/03 10:47:13;;;;;;;5.03;2.40;;;33.10;39.10;;;;;;10471888;28;20231;-71
2022/06/03 11:03:29;;;;;;;3.80;2.10;;;31.00;43.00;;;;;;10467934;28;20228;-71
2022/06/03 11:09:05;;;;;;;4.70;2.10;;;31.60;42.20;;;;;;10461855;28;20323;-71
2022/06/03 11:14:26;;;;;;;5.73;2.43;;;31.10;42.90;;;;;;10470274;28;20232;-70
2022/06/03 11:19:45;;;;;;;4.03;1.90;;;31.90;42.50;;;;;;10449642;28;20309;-71
2022/06/03 11:24:57;;;;;;;3.23;2.23;;;32.30;41.20;;;;;;10469942;28;20221;-70
2022/06/03 11:30:04;;;;;;;2.67;2.20;;;32.60;40.80;;;;;;10475589;28;20223;-71
2022/06/03 11:35:26;;;;;;;4.40;2.30;;;33.60;39.30;;;;;;10459110;28;20223;-71
2022/06/03 11:40:35;;;;;;;6.57;2.20;;;32.80;40.30;;;;;;10459547;28;20212;-70
2022/06/03 11:45:47;;;;;;;2.00;1.80;;;31.60;42.40;;;;;;10472764;28;20227;-70
2022/06/03 11:50:48;;;;;;;3.50;2.03;;;30.30;45.20;;;;;;10461358;28;20219;-72
2022/06/03 11:55:49;;;;;;;3.20;1.97;;;30.10;46.00;;;;;;10470013;28;20579;-69
2022/06/03 12:01:02;;;;;;;2.57;1.87;;;29.50;46.80;;;;;;10464041;28;20219;-70
2022/06/03 12:06:10;;;;;;;5.27;2.03;;;29.40;47.40;;;;;;10453312;28;20270;-70
2022/06/03 12:17:11;;;;;;;3.47;2.33;;;29.80;47.30;;;;;;10455613;28;20223;-69
2022/06/03 12:22:18;;;;;;;3.83;1.90;;;29.90;47.30;;;;;;10455028;28;20215;-69
2022/06/03 12:27:24;;;;;;;5.27;2.30;;;29.70;47.50;;;;;;10463365;28;20255;-70
2022/06/03 12:32:29;;;;;;;3.67;2.20;;;29.50;48.20;;;;;;10457807;28;20710;-69
2022/06/03 12:37:29;;;;;;;3.93;2.20;;;29.80;47.80;;;;;;10476748;28;20624;-70
2022/06/03 12:42:40;;;;;;;3.43;2.20;;;30.50;47.20;;;;;;10481349;28;20298;-69
2022/06/03 12:47:44;;;;;;;6.87;2.13;;;29.70;47.80;;;;;;10475016;28;20231;-70
2022/06/03 12:52:45;;;;;;;8.37;2.20;;;29.40;48.90;;;;;;10476657;28;20227;-70
2022/06/03 12:57:49;;;;;;;3.93;2.00;;;29.80;49.20;;;;;;10473145;28;20238;-70
2022/06/03 13:03:17;;;;;;;3.97;2.30;;;29.90;48.40;;;;;;10480835;28;20214;-70
2022/06/03 13:08:26;;;;;;;3.97;2.50;;;29.70;49.00;;;;;;10470182;28;20239;-70
2022/06/03 13:13:28;;;;;;;4.37;2.43;;;30.20;48.40;;;;;;10441514;28;20216;-69
2022/06/03 13:18:38;;;;;;;4.17;2.50;;;30.80;47.50;;;;;;10477354;28;20220;-70
2022/06/03 13:23:47;;;;;;;4.00;2.10;;;31.40;46.50;;;;;;10469626;28;20235;-70
2022/06/03 13:28:59;;;;;;;2.53;2.00;;;31.50;46.00;;;;;;10472078;28;20226;-70
2022/06/03 13:34:10;;;;;;;4.37;2.20;;;31.60;46.40;;;;;;10469291;28;20758;-69
2022/06/03 13:39:14;;;;;;;2.27;2.07;;;31.40;46.60;;;;;;10468386;28;20220;-70
2022/06/03 13:44:19;;;;;;;5.80;2.30;;;31.10;46.60;;;;;;10477808;28;20721;-70
2022/06/03 13:49:27;;;;;;;3.07;2.40;;;30.80;47.70;;;;;;10469966;28;20226;-70
2022/06/03 13:54:38;;;;;;;4.77;2.47;;;30.50;48.30;;;;;;10470970;28;20216;-69
2022/06/03 13:59:42;;;;;;;2.67;2.23;;;30.10;49.10;;;;;;10468152;28;20266;-69
2022/06/03 14:05:26;;;;;;;6.93;2.23;;;29.70;49.70;;;;;;10474282;28;20307;-70
2022/06/03 14:10:39;;;;;;;3.07;2.47;;;29.40;51.10;;;;;;10461583;28;20306;-70
2022/06/03 14:15:57;;;;;;;3.03;2.30;;;29.30;51.60;;;;;;10470063;28;20232;-70
2022/06/03 14:20:58;;;;;;;4.93;2.37;;;29.20;52.20;;;;;;10477446;28;20203;-69
2022/06/03 14:26:02;;;;;;;5.20;2.47;;;29.00;52.60;;;;;;10476855;28;20219;-69
2022/06/03 14:31:34;;;;;;;4.80;2.60;;;28.80;53.50;;;;;;10470169;28;20227;-69
2022/06/03 14:36:35;;;;;;;5.50;2.33;;;28.70;54.70;;;;;;10462197;28;20652;-69
2022/06/03 14:41:40;;;;;;;5.90;2.70;;;28.50;56.30;;;;;;10471386;28;20212;-69
2022/06/03 14:46:53;;;;;;;6.93;2.50;;;28.30;57.50;;;;;;10473640;28;20223;-69
2022/06/03 14:52:15;;;;;;;5.07;2.13;;;28.10;57.20;;;;;;10470872;28;20227;-69
2022/06/03 14:57:42;;;;;;;7.57;2.57;;;27.80;58.90;;;;;;10468449;28;20303;-69
2022/06/03 15:03:05;;;;;;;3.33;2.03;;;27.60;60.60;;;;;;10451766;28;20203;-69
2022/06/03 15:08:13;;;;;;;5.60;2.50;;;27.40;63.20;;;;;;10473947;28;20311;-70
2022/06/03 15:13:23;;;;;;;5.33;2.50;;;27.20;63.20;;;;;;10474997;28;20744;-70
2022/06/03 15:18:26;;;;;;;2.37;2.10;;;27.10;63.80;;;;;;10476151;28;20303;-69
2022/06/03 15:23:27;;;;;;;3.77;2.60;;;27.00;64.30;;;;;;10475067;28;20634;-69
2022/06/03 15:28:28;;;;;;;3.20;2.63;;;26.90;65.20;;;;;;10459554;28;20640;-70
2022/06/03 15:33:29;;;;;;;4.87;2.93;;;26.80;68.30;;;;;;10467247;28;20223;-69
2022/06/03 15:38:37;;;;;;;6.07;2.70;;;26.50;69.70;;;;;;10464797;28;20882;-69
2022/06/03 15:43:44;;;;;;;2.90;2.30;;;26.50;69.00;;;;;;10469888;28;20215;-69
2022/06/03 15:49:00;;;;;;;4.60;2.50;;;26.40;69.20;;;;;;10472478;28;20595;-69
2022/06/03 15:54:01;;;;;;;2.83;2.37;;;26.40;68.00;;;;;;10472111;28;20355;-69
2022/06/03 15:59:19;;;;;;;3.93;2.30;;;26.40;67.60;;;;;;10470025;28;20369;-69
2022/06/03 16:04:49;;;;;;;3.83;2.20;;;26.40;70.20;;;;;;10473084;28;20306;-69
2022/06/03 16:10:01;;;;;;;2.60;2.40;;;26.50;68.20;;;;;;10468247;28;20218;-73
2022/06/03 16:15:05;;;;;;;2.97;2.17;;;26.60;68.90;;;;;;10478003;28;20250;-69
2022/06/03 16:20:14;;;;;;;5.77;2.50;;;26.80;69.40;;;;;;10476544;28;20690;-68
2022/06/03 16:25:37;;;;;;;5.30;2.70;;;26.80;68.80;;;;;;10474868;28;20187;-72
2022/06/03 16:30:49;;;;;;;2.37;2.13;;;26.70;68.00;;;;;;10475355;28;20213;-70
2022/06/03 16:35:59;;;;;;;2.93;2.20;;;26.40;68.00;;;;;;10467648;28;20298;-70
2022/06/03 16:41:37;;;;;;;4.27;3.07;;;26.00;70.10;;;;;;10482703;28;20291;-69
2022/06/03 16:46:52;;;;;;;5.17;2.77;;;25.60;71.80;;;;;;10466974;28;20401;-69
2022/06/03 16:52:00;;;;;;;7.50;3.13;;;25.40;73.10;;;;;;10476042;28;20273;-69
2022/06/03 16:57:19;;;;;;;6.00;2.60;;;25.30;74.00;;;;;;10472653;28;20235;-70
2022/06/03 17:02:23;;;;;;;3.17;2.80;;;25.10;74.80;;;;;;10480225;28;20226;-70
2022/06/03 17:07:36;;;;;;;5.77;2.47;;;24.80;76.30;;;;;;10446443;28;20284;-69
2022/06/03 17:12:38;;;;;;;5.63;2.63;;;24.50;78.10;;;;;;10473801;28;20215;-69
2022/06/03 17:17:40;;;;;;;3.87;2.80;;;24.30;79.70;;;;;;10480089;28;20226;-70
2022/06/03 17:23:02;;;;;;;5.17;2.50;;;24.20;81.00;;;;;;10468308;28;20225;-69
2022/06/03 17:28:35;;;;;;;4.50;2.83;;;24.10;81.60;;;;;;10468214;28;20244;-68
2022/06/03 17:34:10;;;;;;;5.77;2.90;;;24.00;82.80;;;;;;10458955;28;20721;-69
2022/06/03 17:39:41;;;;;;;3.80;2.90;;;23.90;83.40;;;;;;10475245;28;20216;-69
2022/06/03 17:44:59;;;;;;;4.83;2.93;;;23.70;84.50;;;;;;10467203;28;20277;-69
2022/06/03 17:50:15;;;;;;;3.77;2.83;;;23.70;86.00;;;;;;10473551;28;20666;-69
2022/06/03 17:55:24;;;;;;;4.77;2.80;;;23.60;85.80;;;;;;10485214;28;20212;-69
2022/06/03 18:00:39;;;;;;;6.70;2.73;;;23.60;85.80;;;;;;10469217;28;20736;-68
2022/06/03 18:05:54;;;;;;;7.57;2.90;;;23.60;86.20;;;;;;10476174;28;20215;-69
2022/06/03 18:10:55;;;;;;;4.57;3.10;;;23.60;86.60;;;;;;10468966;28;20213;-69
2022/06/03 18:15:59;;;;;;;3.80;2.90;;;23.50;87.20;;;;;;10471140;28;20242;-69
2022/06/03 18:21:04;;;;;;;5.57;2.90;;;23.50;88.50;;;;;;10457004;28;20567;-70
2022/06/03 18:26:12;;;;;;;6.40;3.57;;;23.40;88.90;;;;;;10455288;28;20223;-70
2022/06/03 18:31:23;;;;;;;8.87;4.33;;;23.40;88.80;;;;;;10457753;28;20214;-70
2022/06/03 18:36:38;;;;;;;5.17;3.50;;;23.30;89.40;;;;;;10451978;28;20217;-69
2022/06/03 18:42:07;;;;;;;6.57;3.22;;;23.30;90.00;;;;;;10466635;28;20408;-71
2022/06/03 18:47:22;;;;;;;6.03;4.23;;;23.20;90.30;;;;;;10453226;28;20765;-70
2022/06/03 18:52:26;;;;;;;7.40;3.40;;;23.20;90.70;;;;;;10451675;28;20710;-69
2022/06/03 18:57:40;;;;;;;4.63;3.43;;;23.10;91.20;;;;;;10483751;28;20254;-70
2022/06/03 19:03:03;;;;;;;8.60;3.50;;;23.00;93.00;;;;;;10461907;28;20212;-71
2022/06/03 19:08:09;;;;;;;7.03;3.40;;;22.90;95.30;;;;;;10470780;28;20322;-71
2022/06/03 19:13:31;;;;;;;4.93;3.93;;;22.80;97.80;;;;;;10461468;28;20212;-70
2022/06/03 19:18:58;;;;;;;3.93;3.50;;;22.60;99.60;;;;;;10458876;28;20812;-70
2022/06/03 19:24:16;;;;;;;6.13;4.23;;;22.60;99.90;;;;;;10464031;28;20334;-68
2022/06/03 19:29:22;;;;;;;4.80;4.40;;;22.50;99.90;;;;;;10469879;28;20239;-69
2022/06/03 19:34:44;;;;;;;4.23;3.83;;;22.40;99.90;;;;;;10468143;28;20295;-71
2022/06/03 19:40:16;;;;;;;8.73;4.80;;;22.30;99.90;;;;;;10443808;28;20234;-71
2022/06/03 19:45:25;;;;;;;8.43;4.80;;;22.30;99.90;;;;;;10472972;28;20694;-71
2022/06/03 19:56:00;;;;;;;7.23;5.10;;;22.10;99.90;;;;;;10474263;28;20706;-69
2022/06/03 20:01:01;;;;;;;7.00;5.30;;;22.00;99.90;;;;;;10469664;28;20246;-69
2022/06/03 20:06:24;;;;;;;6.50;5.20;;;21.90;99.90;;;;;;10485903;28;20252;-69
2022/06/03 20:17:12;;;;;;;12.03;5.13;;;21.90;99.90;;;;;;10456353;28;20303;-69
2022/06/03 20:22:21;;;;;;;7.33;4.53;;;21.90;99.90;;;;;;10460642;28;20227;-69
2022/06/03 20:27:49;;;;;;;5.47;4.50;;;21.60;99.90;;;;;;10471292;28;20312;-69
2022/06/03 20:33:21;;;;;;;5.10;4.57;;;21.50;99.90;;;;;;10475695;28;20212;-69
2022/06/03 20:38:43;;;;;;;6.17;4.47;;;21.40;99.90;;;;;;10470995;28;20231;-70
2022/06/03 20:44:06;;;;;;;4.97;4.40;;;21.30;99.90;;;;;;10471199;28;20258;-68
2022/06/03 20:49:12;;;;;;;5.27;4.63;;;21.40;99.90;;;;;;10474624;28;20226;-68
2022/06/03 20:54:21;;;;;;;6.17;5.10;;;21.50;99.90;;;;;;10473220;28;20219;-68
2022/06/03 20:59:28;;;;;;;6.67;5.17;;;21.40;99.90;;;;;;10479714;28;20298;-69
2022/06/03 21:15:35;;;;;;;6.07;4.63;;;21.40;99.90;;;;;;10467099;28;20588;-69
2022/06/03 21:20:39;;;;;;;5.17;4.60;;;21.30;99.90;;;;;;10471448;28;20216;-69
2022/06/03 21:25:42;;;;;;;5.50;4.90;;;21.20;99.90;;;;;;10495118;28;20230;-68
2022/06/03 21:31:03;;;;;;;6.53;4.43;;;21.20;99.90;;;;;;10476543;28;20805;-68
2022/06/03 21:36:23;;;;;;;6.43;4.23;;;21.20;99.90;;;;;;10458515;28;21513;-72
2022/06/03 21:41:32;;;;;;;6.30;5.00;;;21.20;99.90;;;;;;10458486;28;20739;-68
2022/06/03 21:46:55;;;;;;;6.63;4.80;;;21.10;99.90;;;;;;10461861;28;20707;-68
2022/06/03 21:52:17;;;;;;;6.93;4.90;;;21.10;99.90;;;;;;10460612;28;20226;-69
2022/06/03 21:57:23;;;;;;;7.33;4.93;;;21.00;99.90;;;;;;10453140;28;20212;-68
2022/06/03 22:02:24;;;;;;;9.30;6.27;;;20.90;99.90;;;;;;10453676;28;20291;-69
2022/06/03 22:07:27;;;;;;;7.83;6.43;;;20.80;99.90;;;;;;10473222;28;20771;-68
2022/06/03 22:12:45;;;;;;;8.20;6.67;;;20.80;99.90;;;;;;10472857;28;20208;-67
2022/06/03 22:17:45;;;;;;;6.53;5.93;;;20.80;99.90;;;;;;10462732;28;20267;-70
2022/06/03 22:22:47;;;;;;;10.83;5.30;;;20.90;99.90;;;;;;10470991;28;20222;-68
2022/06/03 22:28:10;;;;;;;7.73;5.07;;;20.90;99.90;;;;;;10471115;28;20720;-68
2022/06/03 22:33:49;;;;;;;7.50;5.90;;;20.70;99.90;;;;;;10462005;28;20211;-68
2022/06/03 22:38:58;;;;;;;8.50;6.03;;;20.60;99.90;;;;;;10430139;28;20220;-68
2022/06/03 22:44:01;;;;;;;8.63;7.00;;;20.60;99.90;;;;;;10476468;28;20266;-70
2022/06/03 22:49:04;;;;;;;8.23;6.47;;;20.70;99.90;;;;;;10468309;28;20276;-69
2022/06/03 22:54:05;;;;;;;6.30;5.00;;;20.70;99.90;;;;;;10470813;28;20224;-69
2022/06/03 22:59:06;;;;;;;8.50;4.60;;;20.70;99.90;;;;;;10468919;28;20215;-68
2022/06/03 23:04:08;;;;;;;5.73;4.37;;;20.70;99.90;;;;;;10470639;28;20220;-68
2022/06/03 23:09:08;;;;;;;4.30;3.83;;;20.70;99.90;;;;;;10468055;28;20257;-70
2022/06/03 23:14:10;;;;;;;5.47;4.80;;;20.60;99.90;;;;;;10460058;28;20598;-69
2022/06/03 23:19:12;;;;;;;5.93;5.13;;;20.60;99.90;;;;;;10466963;28;20227;-69
2022/06/03 23:24:13;;;;;;;9.60;6.93;;;20.60;99.90;;;;;;10474591;28;20701;-69
2022/06/03 23:29:13;;;;;;;7.70;6.17;;;20.50;99.90;;;;;;10467472;28;20310;-70
2022/06/03 23:34:14;;;;;;;10.57;5.97;;;20.40;99.90;;;;;;10474587;28;20218;-69
2022/06/03 23:39:15;;;;;;;9.07;6.80;;;20.50;99.90;;;;;;10465775;28;20215;-70
2022/06/03 23:49:35;;;;;;;6.57;5.87;;;20.50;99.90;;;;;;10459944;28;20227;-69
2022/06/03 23:54:35;;;;;;;6.20;5.63;;;20.50;99.90;;;;;;10466976;28;20235;-71
2022/06/03 23:59:36;;;;;;;8.37;6.93;;;20.40;99.90;;;;;;10475210;28;20816;-69
